sensor_id;sensor_type;location;lat;lon;timestamp;P1;durP1;ratioP1;P2;durP2;ratioP2
71087;SDS011;58747;50.674;4.616;2022-10-16T00:01:31;4.03;;;1.93;;
71087;SDS011;58747;50.674;4.616;2022-10-16T00:03:57;6.57;;;1.80;;
71087;SDS011;58747;50.674;4.616;2022-10-16T00:06:24;3.43;;;1.47;;
71087;SDS011;58747;50.674;4.616;2022-10-16T00:08:50;1.60;;;1.50;;
71087;SDS011;58747;50.674;4.616;2022-10-16T00:11:17;1.98;;;1.60;;
71087;SDS011;58747;50.674;4.616;2022-10-16T00:13:45;2.53;;;0.87;;
71087;SDS011;58747;50.674;4.616;2022-10-16T00:16:11;5.22;;;1.33;;
71087;SDS011;58747;50.674;4.616;2022-10-16T00:18:37;2.70;;;1.50;;
71087;SDS011;58747;50.674;4.616;2022-10-16T00:21:09;1.77;;;0.73;;
71087;SDS011;58747;50.674;4.616;2022-10-16T00:23:37;3.47;;;1.20;;
71087;SDS011;58747;50.674;4.616;2022-10-16T00:26:05;2.92;;;0.93;;
71087;SDS011;58747;50.674;4.616;2022-10-16T00:28:32;2.10;;;1.40;;
71087;SDS011;58747;50.674;4.616;2022-10-16T00:30:58;1.77;;;0.88;;
71087;SDS011;58747;50.674;4.616;2022-10-16T00:33:24;2.33;;;1.33;;
71087;SDS011;58747;50.674;4.616;2022-10-16T00:35:49;2.15;;;1.80;;
71087;SDS011;58747;50.674;4.616;2022-10-16T00:38:15;1.73;;;1.20;;
71087;SDS011;58747;50.674;4.616;2022-10-16T00:40:41;4.60;;;1.60;;
71087;SDS011;58747;50.674;4.616;2022-10-16T00:43:12;1.97;;;1.17;;
71087;SDS011;58747;50.674;4.616;2022-10-16T00:45:56;4.93;;;1.23;;
71087;SDS011;58747;50.674;4.616;2022-10-16T00:48:21;1.87;;;1.10;;
71087;SDS011;58747;50.674;4.616;2022-10-16T00:50:47;3.30;;;1.00;;
71087;SDS011;58747;50.674;4.616;2022-10-16T00:53:12;1.47;;;1.10;;
71087;SDS011;58747;50.674;4.616;2022-10-16T00:55:39;1.40;;;1.30;;
71087;SDS011;58747;50.674;4.616;2022-10-16T00:58:04;2.37;;;1.37;;
71087;SDS011;58747;50.674;4.616;2022-10-16T01:00:30;2.95;;;1.30;;
71087;SDS011;58747;50.674;4.616;2022-10-16T01:02:57;1.37;;;1.07;;
71087;SDS011;58747;50.674;4.616;2022-10-16T01:08:32;2.80;;;1.40;;
71087;SDS011;58747;50.674;4.616;2022-10-16T01:11:12;1.45;;;1.02;;
71087;SDS011;58747;50.674;4.616;2022-10-16T01:13:42;1.90;;;1.20;;
71087;SDS011;58747;50.674;4.616;2022-10-16T01:16:16;3.13;;;1.45;;
71087;SDS011;58747;50.674;4.616;2022-10-16T01:18:51;1.60;;;1.05;;
71087;SDS011;58747;50.674;4.616;2022-10-16T01:21:22;3.47;;;1.30;;
71087;SDS011;58747;50.674;4.616;2022-10-16T01:32:30;1.63;;;1.20;;
71087;SDS011;58747;50.674;4.616;2022-10-16T01:35:02;1.85;;;1.40;;
71087;SDS011;58747;50.674;4.616;2022-10-16T01:40:11;2.03;;;0.83;;
71087;SDS011;58747;50.674;4.616;2022-10-16T01:42:42;1.60;;;1.00;;
71087;SDS011;58747;50.674;4.616;2022-10-16T01:45:13;1.52;;;0.90;;
71087;SDS011;58747;50.674;4.616;2022-10-16T01:47:42;1.48;;;1.30;;
71087;SDS011;58747;50.674;4.616;2022-10-16T01:50:09;2.95;;;1.95;;
71087;SDS011;58747;50.674;4.616;2022-10-16T01:52:35;3.53;;;1.27;;
71087;SDS011;58747;50.674;4.616;2022-10-16T01:55:04;2.97;;;0.77;;
71087;SDS011;58747;50.674;4.616;2022-10-16T01:57:33;1.65;;;1.33;;
71087;SDS011;58747;50.674;4.616;2022-10-16T02:00:03;5.28;;;1.85;;
71087;SDS011;58747;50.674;4.616;2022-10-16T02:02:32;3.78;;;1.27;;
71087;SDS011;58747;50.674;4.616;2022-10-16T02:05:00;2.83;;;1.10;;
71087;SDS011;58747;50.674;4.616;2022-10-16T02:07:29;1.17;;;0.93;;
71087;SDS011;58747;50.674;4.616;2022-10-16T02:09:54;5.13;;;1.40;;
71087;SDS011;58747;50.674;4.616;2022-10-16T02:12:27;2.22;;;1.10;;
71087;SDS011;58747;50.674;4.616;2022-10-16T02:14:56;2.25;;;0.90;;
71087;SDS011;58747;50.674;4.616;2022-10-16T02:17:22;1.53;;;1.00;;
71087;SDS011;58747;50.674;4.616;2022-10-16T02:19:48;1.92;;;1.60;;
71087;SDS011;58747;50.674;4.616;2022-10-16T02:22:26;7.07;;;1.50;;
71087;SDS011;58747;50.674;4.616;2022-10-16T02:24:56;2.53;;;1.40;;
71087;SDS011;58747;50.674;4.616;2022-10-16T02:27:27;3.07;;;1.40;;
71087;SDS011;58747;50.674;4.616;2022-10-16T02:30:29;3.75;;;1.40;;
71087;SDS011;58747;50.674;4.616;2022-10-16T02:32:57;2.42;;;1.55;;
71087;SDS011;58747;50.674;4.616;2022-10-16T02:35:25;2.60;;;1.13;;
71087;SDS011;58747;50.674;4.616;2022-10-16T02:37:52;3.17;;;1.45;;
71087;SDS011;58747;50.674;4.616;2022-10-16T02:40:18;5.10;;;2.53;;
71087;SDS011;58747;50.674;4.616;2022-10-16T02:42:44;5.60;;;2.00;;
71087;SDS011;58747;50.674;4.616;2022-10-16T02:45:10;4.43;;;1.73;;
71087;SDS011;58747;50.674;4.616;2022-10-16T02:47:36;4.90;;;2.10;;
71087;SDS011;58747;50.674;4.616;2022-10-16T02:50:02;4.65;;;1.58;;
71087;SDS011;58747;50.674;4.616;2022-10-16T02:52:28;5.10;;;2.53;;
71087;SDS011;58747;50.674;4.616;2022-10-16T02:54:54;4.07;;;1.73;;
71087;SDS011;58747;50.674;4.616;2022-10-16T02:57:19;4.17;;;2.27;;
71087;SDS011;58747;50.674;4.616;2022-10-16T02:59:44;4.60;;;2.30;;
71087;SDS011;58747;50.674;4.616;2022-10-16T03:02:10;3.10;;;1.60;;
71087;SDS011;58747;50.674;4.616;2022-10-16T03:04:35;3.83;;;1.60;;
71087;SDS011;58747;50.674;4.616;2022-10-16T03:07:01;4.10;;;1.80;;
71087;SDS011;58747;50.674;4.616;2022-10-16T03:09:27;3.72;;;2.35;;
71087;SDS011;58747;50.674;4.616;2022-10-16T03:11:53;2.97;;;2.20;;
71087;SDS011;58747;50.674;4.616;2022-10-16T03:14:18;6.67;;;2.20;;
71087;SDS011;58747;50.674;4.616;2022-10-16T03:16:43;2.90;;;1.77;;
71087;SDS011;58747;50.674;4.616;2022-10-16T03:19:09;5.88;;;2.42;;
71087;SDS011;58747;50.674;4.616;2022-10-16T03:21:34;5.50;;;2.03;;
71087;SDS011;58747;50.674;4.616;2022-10-16T03:23:59;3.83;;;2.30;;
71087;SDS011;58747;50.674;4.616;2022-10-16T03:26:25;4.57;;;2.10;;
71087;SDS011;58747;50.674;4.616;2022-10-16T03:28:50;8.93;;;2.43;;
71087;SDS011;58747;50.674;4.616;2022-10-16T03:31:16;6.83;;;2.67;;
71087;SDS011;58747;50.674;4.616;2022-10-16T03:33:41;6.95;;;3.00;;
71087;SDS011;58747;50.674;4.616;2022-10-16T03:36:06;5.67;;;2.60;;
71087;SDS011;58747;50.674;4.616;2022-10-16T03:38:32;6.60;;;2.50;;
71087;SDS011;58747;50.674;4.616;2022-10-16T03:40:57;6.07;;;2.80;;
71087;SDS011;58747;50.674;4.616;2022-10-16T03:43:22;8.60;;;2.77;;
71087;SDS011;58747;50.674;4.616;2022-10-16T03:45:49;4.57;;;2.23;;
71087;SDS011;58747;50.674;4.616;2022-10-16T03:48:16;5.10;;;2.40;;
71087;SDS011;58747;50.674;4.616;2022-10-16T03:50:41;4.00;;;2.17;;
71087;SDS011;58747;50.674;4.616;2022-10-16T03:53:07;4.40;;;2.30;;
71087;SDS011;58747;50.674;4.616;2022-10-16T03:55:32;4.10;;;2.20;;
71087;SDS011;58747;50.674;4.616;2022-10-16T03:57:57;3.37;;;2.30;;
71087;SDS011;58747;50.674;4.616;2022-10-16T04:00:22;5.33;;;2.37;;
71087;SDS011;58747;50.674;4.616;2022-10-16T04:02:48;5.37;;;2.53;;
71087;SDS011;58747;50.674;4.616;2022-10-16T04:05:13;6.30;;;2.63;;
71087;SDS011;58747;50.674;4.616;2022-10-16T04:07:38;3.90;;;2.17;;
71087;SDS011;58747;50.674;4.616;2022-10-16T04:10:04;4.50;;;2.23;;
71087;SDS011;58747;50.674;4.616;2022-10-16T04:12:30;3.40;;;2.57;;
71087;SDS011;58747;50.674;4.616;2022-10-16T04:14:55;3.92;;;2.88;;
71087;SDS011;58747;50.674;4.616;2022-10-16T04:17:20;7.77;;;2.77;;
71087;SDS011;58747;50.674;4.616;2022-10-16T04:19:46;5.27;;;2.80;;
71087;SDS011;58747;50.674;4.616;2022-10-16T04:22:11;8.03;;;2.97;;
71087;SDS011;58747;50.674;4.616;2022-10-16T04:24:36;5.40;;;2.87;;
71087;SDS011;58747;50.674;4.616;2022-10-16T04:27:02;5.87;;;2.50;;
71087;SDS011;58747;50.674;4.616;2022-10-16T04:29:28;5.63;;;2.70;;
71087;SDS011;58747;50.674;4.616;2022-10-16T04:31:53;4.73;;;2.37;;
71087;SDS011;58747;50.674;4.616;2022-10-16T04:34:18;4.27;;;2.60;;
71087;SDS011;58747;50.674;4.616;2022-10-16T04:36:44;8.80;;;2.53;;
71087;SDS011;58747;50.674;4.616;2022-10-16T04:39:12;5.88;;;2.55;;
71087;SDS011;58747;50.674;4.616;2022-10-16T04:41:37;5.10;;;3.13;;
71087;SDS011;58747;50.674;4.616;2022-10-16T04:44:02;6.47;;;3.13;;
71087;SDS011;58747;50.674;4.616;2022-10-16T04:46:28;5.33;;;3.03;;
71087;SDS011;58747;50.674;4.616;2022-10-16T04:48:53;7.40;;;3.72;;
71087;SDS011;58747;50.674;4.616;2022-10-16T04:51:18;5.40;;;3.70;;
71087;SDS011;58747;50.674;4.616;2022-10-16T04:53:44;8.87;;;3.90;;
71087;SDS011;58747;50.674;4.616;2022-10-16T04:56:09;10.20;;;3.90;;
71087;SDS011;58747;50.674;4.616;2022-10-16T04:58:35;9.65;;;3.70;;
71087;SDS011;58747;50.674;4.616;2022-10-16T05:01:00;7.57;;;3.40;;
71087;SDS011;58747;50.674;4.616;2022-10-16T05:03:25;9.90;;;3.80;;
71087;SDS011;58747;50.674;4.616;2022-10-16T05:05:51;7.77;;;3.83;;
71087;SDS011;58747;50.674;4.616;2022-10-16T05:08:16;9.47;;;3.60;;
71087;SDS011;58747;50.674;4.616;2022-10-16T05:10:42;9.10;;;3.73;;
71087;SDS011;58747;50.674;4.616;2022-10-16T05:13:08;8.18;;;3.80;;
71087;SDS011;58747;50.674;4.616;2022-10-16T05:15:34;6.13;;;3.17;;
71087;SDS011;58747;50.674;4.616;2022-10-16T05:18:00;9.97;;;3.07;;
71087;SDS011;58747;50.674;4.616;2022-10-16T05:20:25;7.93;;;3.93;;
71087;SDS011;58747;50.674;4.616;2022-10-16T05:22:51;9.73;;;4.15;;
71087;SDS011;58747;50.674;4.616;2022-10-16T05:25:16;7.00;;;3.57;;
71087;SDS011;58747;50.674;4.616;2022-10-16T05:27:41;6.60;;;3.50;;
71087;SDS011;58747;50.674;4.616;2022-10-16T05:30:07;7.70;;;3.07;;
71087;SDS011;58747;50.674;4.616;2022-10-16T05:32:33;7.32;;;4.18;;
71087;SDS011;58747;50.674;4.616;2022-10-16T05:34:58;9.50;;;4.00;;
71087;SDS011;58747;50.674;4.616;2022-10-16T05:37:24;6.80;;;3.00;;
71087;SDS011;58747;50.674;4.616;2022-10-16T05:39:50;8.13;;;3.30;;
71087;SDS011;58747;50.674;4.616;2022-10-16T05:42:15;6.20;;;2.93;;
71087;SDS011;58747;50.674;4.616;2022-10-16T05:44:41;6.70;;;2.93;;
71087;SDS011;58747;50.674;4.616;2022-10-16T05:47:06;5.53;;;2.75;;
71087;SDS011;58747;50.674;4.616;2022-10-16T05:49:31;6.27;;;3.43;;
71087;SDS011;58747;50.674;4.616;2022-10-16T05:51:57;5.43;;;3.33;;
71087;SDS011;58747;50.674;4.616;2022-10-16T05:54:22;5.07;;;3.27;;
71087;SDS011;58747;50.674;4.616;2022-10-16T05:56:47;7.27;;;3.03;;
71087;SDS011;58747;50.674;4.616;2022-10-16T05:59:13;4.60;;;2.83;;
71087;SDS011;58747;50.674;4.616;2022-10-16T06:01:38;5.22;;;3.17;;
71087;SDS011;58747;50.674;4.616;2022-10-16T06:04:04;6.37;;;2.70;;
71087;SDS011;58747;50.674;4.616;2022-10-16T06:06:29;7.27;;;3.13;;
71087;SDS011;58747;50.674;4.616;2022-10-16T06:08:56;7.07;;;2.90;;
71087;SDS011;58747;50.674;4.616;2022-10-16T06:11:23;5.27;;;3.07;;
71087;SDS011;58747;50.674;4.616;2022-10-16T06:13:52;4.10;;;2.92;;
71087;SDS011;58747;50.674;4.616;2022-10-16T06:16:18;7.05;;;3.65;;
71087;SDS011;58747;50.674;4.616;2022-10-16T06:18:44;8.53;;;3.23;;
71087;SDS011;58747;50.674;4.616;2022-10-16T06:21:10;5.30;;;3.00;;
71087;SDS011;58747;50.674;4.616;2022-10-16T06:23:39;5.53;;;3.20;;
71087;SDS011;58747;50.674;4.616;2022-10-16T06:26:11;6.10;;;3.33;;
71087;SDS011;58747;50.674;4.616;2022-10-16T06:28:38;6.13;;;3.05;;
71087;SDS011;58747;50.674;4.616;2022-10-16T06:31:04;5.17;;;3.20;;
71087;SDS011;58747;50.674;4.616;2022-10-16T06:33:31;4.45;;;2.13;;
71087;SDS011;58747;50.674;4.616;2022-10-16T06:36:01;4.05;;;2.70;;
71087;SDS011;58747;50.674;4.616;2022-10-16T06:38:28;5.15;;;3.22;;
71087;SDS011;58747;50.674;4.616;2022-10-16T06:40:53;4.33;;;2.80;;
71087;SDS011;58747;50.674;4.616;2022-10-16T06:43:18;5.70;;;3.37;;
71087;SDS011;58747;50.674;4.616;2022-10-16T06:45:49;6.30;;;3.30;;
71087;SDS011;58747;50.674;4.616;2022-10-16T06:48:22;4.50;;;3.58;;
71087;SDS011;58747;50.674;4.616;2022-10-16T06:50:57;6.63;;;2.83;;
71087;SDS011;58747;50.674;4.616;2022-10-16T06:53:26;4.55;;;3.25;;
71087;SDS011;58747;50.674;4.616;2022-10-16T06:55:53;8.57;;;3.30;;
71087;SDS011;58747;50.674;4.616;2022-10-16T06:58:19;6.20;;;3.38;;
71087;SDS011;58747;50.674;4.616;2022-10-16T07:00:45;9.70;;;3.40;;
71087;SDS011;58747;50.674;4.616;2022-10-16T07:03:10;4.17;;;2.83;;
71087;SDS011;58747;50.674;4.616;2022-10-16T07:05:39;5.13;;;3.20;;
71087;SDS011;58747;50.674;4.616;2022-10-16T07:08:05;5.35;;;3.35;;
71087;SDS011;58747;50.674;4.616;2022-10-16T07:10:31;6.97;;;3.57;;
71087;SDS011;58747;50.674;4.616;2022-10-16T07:12:57;8.35;;;3.20;;
71087;SDS011;58747;50.674;4.616;2022-10-16T07:15:22;4.23;;;3.10;;
71087;SDS011;58747;50.674;4.616;2022-10-16T07:17:49;4.18;;;3.38;;
71087;SDS011;58747;50.674;4.616;2022-10-16T07:20:15;7.03;;;4.10;;
71087;SDS011;58747;50.674;4.616;2022-10-16T07:22:40;4.97;;;3.40;;
71087;SDS011;58747;50.674;4.616;2022-10-16T07:25:05;6.73;;;3.63;;
71087;SDS011;58747;50.674;4.616;2022-10-16T07:27:31;5.07;;;3.60;;
71087;SDS011;58747;50.674;4.616;2022-10-16T07:29:56;5.03;;;3.10;;
71087;SDS011;58747;50.674;4.616;2022-10-16T07:32:22;7.77;;;3.90;;
71087;SDS011;58747;50.674;4.616;2022-10-16T07:34:48;7.35;;;3.78;;
71087;SDS011;58747;50.674;4.616;2022-10-16T07:37:14;5.17;;;3.57;;
71087;SDS011;58747;50.674;4.616;2022-10-16T07:39:39;6.53;;;3.67;;
71087;SDS011;58747;50.674;4.616;2022-10-16T07:42:04;8.30;;;3.50;;
71087;SDS011;58747;50.674;4.616;2022-10-16T07:44:30;5.23;;;3.33;;
71087;SDS011;58747;50.674;4.616;2022-10-16T07:46:55;6.03;;;3.22;;
71087;SDS011;58747;50.674;4.616;2022-10-16T07:49:20;6.10;;;3.77;;
71087;SDS011;58747;50.674;4.616;2022-10-16T07:51:46;6.60;;;3.57;;
71087;SDS011;58747;50.674;4.616;2022-10-16T07:54:11;4.40;;;3.50;;
71087;SDS011;58747;50.674;4.616;2022-10-16T07:56:36;7.10;;;3.20;;
71087;SDS011;58747;50.674;4.616;2022-10-16T07:59:02;4.43;;;3.20;;
71087;SDS011;58747;50.674;4.616;2022-10-16T08:01:27;4.93;;;3.10;;
71087;SDS011;58747;50.674;4.616;2022-10-16T08:03:53;7.53;;;2.80;;
71087;SDS011;58747;50.674;4.616;2022-10-16T08:06:19;5.63;;;2.90;;
71087;SDS011;58747;50.674;4.616;2022-10-16T08:08:45;5.35;;;2.90;;
71087;SDS011;58747;50.674;4.616;2022-10-16T08:11:11;6.27;;;2.97;;
71087;SDS011;58747;50.674;4.616;2022-10-16T08:13:36;3.77;;;2.77;;
71087;SDS011;58747;50.674;4.616;2022-10-16T08:16:02;3.65;;;2.28;;
71087;SDS011;58747;50.674;4.616;2022-10-16T08:18:32;3.80;;;1.97;;
71087;SDS011;58747;50.674;4.616;2022-10-16T08:20:58;2.85;;;2.40;;
71087;SDS011;58747;50.674;4.616;2022-10-16T08:23:25;5.78;;;2.30;;
71087;SDS011;58747;50.674;4.616;2022-10-16T08:25:52;3.08;;;2.10;;
71087;SDS011;58747;50.674;4.616;2022-10-16T08:28:18;4.00;;;2.63;;
71087;SDS011;58747;50.674;4.616;2022-10-16T08:30:44;2.55;;;2.22;;
71087;SDS011;58747;50.674;4.616;2022-10-16T08:33:09;2.23;;;1.60;;
71087;SDS011;58747;50.674;4.616;2022-10-16T08:35:35;3.27;;;1.80;;
71087;SDS011;58747;50.674;4.616;2022-10-16T08:38:02;3.60;;;1.70;;
71087;SDS011;58747;50.674;4.616;2022-10-16T08:40:29;2.30;;;1.73;;
71087;SDS011;58747;50.674;4.616;2022-10-16T08:51:18;4.40;;;1.70;;
71087;SDS011;58747;50.674;4.616;2022-10-16T08:53:50;4.03;;;1.40;;
71087;SDS011;58747;50.674;4.616;2022-10-16T08:56:19;3.63;;;1.42;;
71087;SDS011;58747;50.674;4.616;2022-10-16T08:58:48;4.22;;;1.38;;
71087;SDS011;58747;50.674;4.616;2022-10-16T09:01:14;2.73;;;1.80;;
71087;SDS011;58747;50.674;4.616;2022-10-16T09:11:35;5.07;;;1.87;;
71087;SDS011;58747;50.674;4.616;2022-10-16T09:19:37;3.60;;;1.38;;
71087;SDS011;58747;50.674;4.616;2022-10-16T09:22:14;2.65;;;1.48;;
71087;SDS011;58747;50.674;4.616;2022-10-16T09:24:41;3.40;;;1.38;;
71087;SDS011;58747;50.674;4.616;2022-10-16T09:27:10;1.60;;;1.40;;
71087;SDS011;58747;50.674;4.616;2022-10-16T09:29:37;4.32;;;1.33;;
71087;SDS011;58747;50.674;4.616;2022-10-16T09:32:08;2.53;;;1.50;;
71087;SDS011;58747;50.674;4.616;2022-10-16T09:34:38;3.08;;;1.20;;
71087;SDS011;58747;50.674;4.616;2022-10-16T09:37:09;6.05;;;1.45;;
71087;SDS011;58747;50.674;4.616;2022-10-16T09:39:45;3.05;;;1.10;;
71087;SDS011;58747;50.674;4.616;2022-10-16T09:42:14;2.80;;;1.25;;
71087;SDS011;58747;50.674;4.616;2022-10-16T09:44:52;2.57;;;1.33;;
71087;SDS011;58747;50.674;4.616;2022-10-16T09:47:19;2.55;;;1.65;;
71087;SDS011;58747;50.674;4.616;2022-10-16T09:49:57;4.70;;;1.75;;
71087;SDS011;58747;50.674;4.616;2022-10-16T09:52:29;4.05;;;1.73;;
71087;SDS011;58747;50.674;4.616;2022-10-16T09:54:56;1.60;;;1.50;;
71087;SDS011;58747;50.674;4.616;2022-10-16T09:57:26;2.07;;;1.40;;
71087;SDS011;58747;50.674;4.616;2022-10-16T09:59:53;3.47;;;1.30;;
71087;SDS011;58747;50.674;4.616;2022-10-16T10:02:23;6.25;;;1.73;;
71087;SDS011;58747;50.674;4.616;2022-10-16T10:04:55;1.52;;;1.23;;
71087;SDS011;58747;50.674;4.616;2022-10-16T10:07:30;3.67;;;1.70;;
71087;SDS011;58747;50.674;4.616;2022-10-16T10:09:59;2.67;;;1.60;;
71087;SDS011;58747;50.674;4.616;2022-10-16T10:12:29;2.20;;;1.88;;
71087;SDS011;58747;50.674;4.616;2022-10-16T10:17:32;3.90;;;2.03;;
71087;SDS011;58747;50.674;4.616;2022-10-16T10:20:14;3.17;;;1.50;;
71087;SDS011;58747;50.674;4.616;2022-10-16T10:22:46;4.15;;;1.55;;
71087;SDS011;58747;50.674;4.616;2022-10-16T10:27:44;6.77;;;1.93;;
71087;SDS011;58747;50.674;4.616;2022-10-16T10:39:00;3.00;;;1.60;;
71087;SDS011;58747;50.674;4.616;2022-10-16T10:41:54;3.05;;;1.77;;
71087;SDS011;58747;50.674;4.616;2022-10-16T10:45:23;2.65;;;2.30;;
71087;SDS011;58747;50.674;4.616;2022-10-16T10:50:25;4.37;;;1.47;;
71087;SDS011;58747;50.674;4.616;2022-10-16T10:55:59;3.72;;;1.90;;
71087;SDS011;58747;50.674;4.616;2022-10-16T11:06:08;2.43;;;2.33;;
71087;SDS011;58747;50.674;4.616;2022-10-16T11:08:50;2.20;;;2.10;;
71087;SDS011;58747;50.674;4.616;2022-10-16T11:11:23;4.32;;;2.75;;
71087;SDS011;58747;50.674;4.616;2022-10-16T11:16:54;3.35;;;2.70;;
71087;SDS011;58747;50.674;4.616;2022-10-16T11:22:27;3.43;;;3.17;;
71087;SDS011;58747;50.674;4.616;2022-10-16T11:28:06;3.58;;;1.92;;
71087;SDS011;58747;50.674;4.616;2022-10-16T11:30:41;2.00;;;1.60;;
71087;SDS011;58747;50.674;4.616;2022-10-16T11:33:20;3.30;;;2.28;;
71087;SDS011;58747;50.674;4.616;2022-10-16T11:35:58;4.20;;;2.27;;
71087;SDS011;58747;50.674;4.616;2022-10-16T11:41:03;3.63;;;2.53;;
71087;SDS011;58747;50.674;4.616;2022-10-16T11:43:38;3.53;;;2.30;;
71087;SDS011;58747;50.674;4.616;2022-10-16T11:46:09;5.60;;;2.70;;
71087;SDS011;58747;50.674;4.616;2022-10-16T11:51:36;5.90;;;2.13;;
71087;SDS011;58747;50.674;4.616;2022-10-16T11:56:46;2.75;;;1.65;;
71087;SDS011;58747;50.674;4.616;2022-10-16T11:59:26;4.60;;;2.08;;
71087;SDS011;58747;50.674;4.616;2022-10-16T12:08:10;2.33;;;1.63;;
71087;SDS011;58747;50.674;4.616;2022-10-16T12:10:39;2.38;;;1.73;;
71087;SDS011;58747;50.674;4.616;2022-10-16T12:16:03;2.63;;;1.70;;
71087;SDS011;58747;50.674;4.616;2022-10-16T12:18:47;3.55;;;1.70;;
71087;SDS011;58747;50.674;4.616;2022-10-16T12:21:14;1.75;;;1.52;;
71087;SDS011;58747;50.674;4.616;2022-10-16T12:26:14;6.55;;;2.28;;
71087;SDS011;58747;50.674;4.616;2022-10-16T12:28:49;1.70;;;1.40;;
71087;SDS011;58747;50.674;4.616;2022-10-16T12:31:16;2.15;;;1.30;;
71087;SDS011;58747;50.674;4.616;2022-10-16T12:33:56;3.92;;;1.45;;
71087;SDS011;58747;50.674;4.616;2022-10-16T12:36:28;1.83;;;1.60;;
71087;SDS011;58747;50.674;4.616;2022-10-16T12:38:56;4.10;;;1.90;;
71087;SDS011;58747;50.674;4.616;2022-10-16T12:41:28;3.30;;;1.08;;
71087;SDS011;58747;50.674;4.616;2022-10-16T12:43:54;1.88;;;1.38;;
71087;SDS011;58747;50.674;4.616;2022-10-16T12:46:21;2.87;;;1.80;;
71087;SDS011;58747;50.674;4.616;2022-10-16T12:48:48;1.50;;;1.30;;
71087;SDS011;58747;50.674;4.616;2022-10-16T13:05:23;2.55;;;1.08;;
71087;SDS011;58747;50.674;4.616;2022-10-16T13:11:00;3.47;;;1.43;;
71087;SDS011;58747;50.674;4.616;2022-10-16T13:30:18;1.67;;;1.23;;
71087;SDS011;58747;50.674;4.616;2022-10-16T13:32:47;2.63;;;1.10;;
71087;SDS011;58747;50.674;4.616;2022-10-16T13:35:21;3.83;;;1.60;;
71087;SDS011;58747;50.674;4.616;2022-10-16T13:38:02;2.67;;;1.80;;
71087;SDS011;58747;50.674;4.616;2022-10-16T13:40:31;1.88;;;1.20;;
71087;SDS011;58747;50.674;4.616;2022-10-16T13:42:56;1.58;;;1.08;;
71087;SDS011;58747;50.674;4.616;2022-10-16T13:45:25;2.45;;;1.20;;
71087;SDS011;58747;50.674;4.616;2022-10-16T13:48:01;1.73;;;1.50;;
71087;SDS011;58747;50.674;4.616;2022-10-16T13:50:27;1.30;;;1.08;;
71087;SDS011;58747;50.674;4.616;2022-10-16T13:53:02;3.53;;;1.73;;
71087;SDS011;58747;50.674;4.616;2022-10-16T13:55:32;2.90;;;1.38;;
71087;SDS011;58747;50.674;4.616;2022-10-16T13:58:05;1.50;;;1.40;;
71087;SDS011;58747;50.674;4.616;2022-10-16T14:00:33;2.67;;;1.17;;
71087;SDS011;58747;50.674;4.616;2022-10-16T14:03:01;5.43;;;1.70;;
71087;SDS011;58747;50.674;4.616;2022-10-16T14:05:28;2.80;;;1.63;;
71087;SDS011;58747;50.674;4.616;2022-10-16T14:07:53;1.10;;;1.00;;
71087;SDS011;58747;50.674;4.616;2022-10-16T14:10:21;3.08;;;1.33;;
71087;SDS011;58747;50.674;4.616;2022-10-16T14:13:00;5.80;;;1.50;;
71087;SDS011;58747;50.674;4.616;2022-10-16T14:15:27;2.78;;;1.50;;
71087;SDS011;58747;50.674;4.616;2022-10-16T14:17:55;1.83;;;1.40;;
71087;SDS011;58747;50.674;4.616;2022-10-16T14:20:22;2.38;;;1.40;;
71087;SDS011;58747;50.674;4.616;2022-10-16T14:22:59;1.58;;;1.35;;
71087;SDS011;58747;50.674;4.616;2022-10-16T14:25:47;1.97;;;1.20;;
71087;SDS011;58747;50.674;4.616;2022-10-16T14:30:50;2.30;;;1.70;;
71087;SDS011;58747;50.674;4.616;2022-10-16T14:33:22;1.48;;;1.13;;
71087;SDS011;58747;50.674;4.616;2022-10-16T14:35:57;2.05;;;1.40;;
71087;SDS011;58747;50.674;4.616;2022-10-16T14:38:24;1.17;;;0.93;;
71087;SDS011;58747;50.674;4.616;2022-10-16T14:40:49;1.70;;;1.27;;
71087;SDS011;58747;50.674;4.616;2022-10-16T14:43:20;3.17;;;1.53;;
71087;SDS011;58747;50.674;4.616;2022-10-16T14:45:51;7.07;;;1.77;;
71087;SDS011;58747;50.674;4.616;2022-10-16T14:48:19;2.72;;;1.75;;
71087;SDS011;58747;50.674;4.616;2022-10-16T14:50:45;1.73;;;1.63;;
71087;SDS011;58747;50.674;4.616;2022-10-16T14:53:11;1.27;;;1.27;;
71087;SDS011;58747;50.674;4.616;2022-10-16T14:55:37;1.65;;;1.40;;
71087;SDS011;58747;50.674;4.616;2022-10-16T14:58:03;2.05;;;1.90;;
71087;SDS011;58747;50.674;4.616;2022-10-16T15:00:29;3.03;;;1.50;;
71087;SDS011;58747;50.674;4.616;2022-10-16T15:02:54;3.37;;;1.93;;
71087;SDS011;58747;50.674;4.616;2022-10-16T15:05:23;2.90;;;1.73;;
71087;SDS011;58747;50.674;4.616;2022-10-16T15:07:51;2.40;;;1.80;;
71087;SDS011;58747;50.674;4.616;2022-10-16T15:10:18;3.00;;;1.60;;
71087;SDS011;58747;50.674;4.616;2022-10-16T15:12:46;4.45;;;2.30;;
71087;SDS011;58747;50.674;4.616;2022-10-16T15:17:55;1.77;;;1.67;;
71087;SDS011;58747;50.674;4.616;2022-10-16T15:20:25;2.37;;;1.27;;
71087;SDS011;58747;50.674;4.616;2022-10-16T15:22:55;4.90;;;1.98;;
71087;SDS011;58747;50.674;4.616;2022-10-16T15:25:31;1.45;;;1.02;;
71087;SDS011;58747;50.674;4.616;2022-10-16T15:28:00;3.45;;;1.50;;
71087;SDS011;58747;50.674;4.616;2022-10-16T15:30:27;3.33;;;1.83;;
71087;SDS011;58747;50.674;4.616;2022-10-16T15:32:52;3.40;;;1.58;;
71087;SDS011;58747;50.674;4.616;2022-10-16T15:35:17;1.47;;;1.20;;
71087;SDS011;58747;50.674;4.616;2022-10-16T15:37:43;1.93;;;1.33;;
71087;SDS011;58747;50.674;4.616;2022-10-16T15:40:09;2.30;;;1.67;;
71087;SDS011;58747;50.674;4.616;2022-10-16T15:42:35;2.15;;;1.08;;
71087;SDS011;58747;50.674;4.616;2022-10-16T15:45:01;1.50;;;1.40;;
71087;SDS011;58747;50.674;4.616;2022-10-16T15:47:26;2.30;;;1.87;;
71087;SDS011;58747;50.674;4.616;2022-10-16T15:49:52;4.57;;;2.43;;
71087;SDS011;58747;50.674;4.616;2022-10-16T15:52:17;2.93;;;1.50;;
71087;SDS011;58747;50.674;4.616;2022-10-16T15:54:43;3.97;;;2.08;;
71087;SDS011;58747;50.674;4.616;2022-10-16T15:57:08;5.67;;;2.23;;
71087;SDS011;58747;50.674;4.616;2022-10-16T15:59:34;4.40;;;2.88;;
71087;SDS011;58747;50.674;4.616;2022-10-16T16:01:59;3.43;;;2.60;;
71087;SDS011;58747;50.674;4.616;2022-10-16T16:04:24;3.87;;;2.70;;
71087;SDS011;58747;50.674;4.616;2022-10-16T16:06:50;14.27;;;2.93;;
71087;SDS011;58747;50.674;4.616;2022-10-16T16:09:15;3.93;;;3.00;;
71087;SDS011;58747;50.674;4.616;2022-10-16T16:11:41;3.97;;;2.60;;
71087;SDS011;58747;50.674;4.616;2022-10-16T16:14:07;4.40;;;2.17;;
71087;SDS011;58747;50.674;4.616;2022-10-16T16:16:35;3.65;;;2.40;;
71087;SDS011;58747;50.674;4.616;2022-10-16T16:19:03;5.97;;;2.03;;
71087;SDS011;58747;50.674;4.616;2022-10-16T16:21:29;4.65;;;2.60;;
71087;SDS011;58747;50.674;4.616;2022-10-16T16:23:55;4.90;;;2.60;;
71087;SDS011;58747;50.674;4.616;2022-10-16T16:26:24;4.35;;;2.70;;
71087;SDS011;58747;50.674;4.616;2022-10-16T16:28:51;4.40;;;2.50;;
71087;SDS011;58747;50.674;4.616;2022-10-16T16:31:18;4.88;;;3.15;;
71087;SDS011;58747;50.674;4.616;2022-10-16T16:33:44;3.88;;;3.47;;
71087;SDS011;58747;50.674;4.616;2022-10-16T16:36:09;5.00;;;3.53;;
71087;SDS011;58747;50.674;4.616;2022-10-16T16:38:35;3.80;;;2.90;;
71087;SDS011;58747;50.674;4.616;2022-10-16T16:41:10;3.83;;;2.40;;
71087;SDS011;58747;50.674;4.616;2022-10-16T16:43:36;4.28;;;2.45;;
71087;SDS011;58747;50.674;4.616;2022-10-16T16:46:01;2.70;;;1.83;;
71087;SDS011;58747;50.674;4.616;2022-10-16T16:48:27;3.17;;;1.93;;
71087;SDS011;58747;50.674;4.616;2022-10-16T16:50:52;5.70;;;2.53;;
71087;SDS011;58747;50.674;4.616;2022-10-16T16:53:17;1.93;;;1.67;;
71087;SDS011;58747;50.674;4.616;2022-10-16T16:55:43;1.77;;;1.67;;
71087;SDS011;58747;50.674;4.616;2022-10-16T16:58:08;2.97;;;1.87;;
71087;SDS011;58747;50.674;4.616;2022-10-16T17:00:34;2.87;;;1.80;;
71087;SDS011;58747;50.674;4.616;2022-10-16T17:02:59;2.13;;;1.87;;
71087;SDS011;58747;50.674;4.616;2022-10-16T17:05:25;7.03;;;3.57;;